Time;durP1;ratioP1;P1;durP2;ratioP2;P2;SDS_P1;SDS_P2;PMS_P1;PMS_P2;Temp;Humidity;BMP_temperature;BMP_pressure;BME280_temperature;BME280_humidity;BME280_pressure;Samples;Min_cycle;Max_cycle;Signal;HPM_P1;HPM_P2
2023/01/17 00:02:01;;;;;;;;;7.00;7.00;;;;;;;;5312653;27;8826;-72
2023/01/17 00:10:27;;;;;;;;;3.00;3.00;;;;;;;;5267844;27;8772;-73
2023/01/17 00:13:00;;;;;;;;;3.80;3.80;;;;;;;;5312415;27;8800;-73
2023/01/17 00:15:31;;;;;;;;;3.00;3.00;;;;;;;;5331043;27;8799;-74
2023/01/17 00:18:02;;;;;;;;;0.60;0.60;;;;;;;;5331190;27;8802;-74
2023/01/17 00:26:31;;;;;;;;;4.00;4.00;;;;;;;;5316367;27;8787;-73
2023/01/17 01:35:50;;;;;;;;;19.80;19.80;;;;;;;;5315364;27;8837;-74
2023/01/17 01:38:23;;;;;;;;;17.60;16.00;;;;;;;;5315983;27;9548;-73
2023/01/17 01:40:55;;;;;;;;;21.40;20.60;;;;;;;;5298119;27;8783;-72
2023/01/17 01:43:42;;;;;;;;;7.40;7.40;;;;;;;;5316084;27;8842;-72
2023/01/17 01:46:15;;;;;;;;;9.00;9.00;;;;;;;;5298416;27;9443;-71
2023/01/17 01:48:46;;;;;;;;;3.60;3.00;;;;;;;;5297742;27;8843;-72
2023/01/17 01:51:20;;;;;;;;;3.20;3.20;;;;;;;;5333619;27;8840;-73
2023/01/17 01:53:53;;;;;;;;;4.00;4.00;;;;;;;;5314942;27;9067;-73
2023/01/17 01:56:26;;;;;;;;;4.40;4.40;;;;;;;;5297604;27;8787;-72
2023/01/17 01:59:01;;;;;;;;;2.20;2.20;;;;;;;;5314956;27;8751;-73
2023/01/17 02:01:32;;;;;;;;;0.80;0.80;;;;;;;;5281156;27;8768;-72
2023/01/17 02:04:08;;;;;;;;;0.80;0.80;;;;;;;;5314486;27;8768;-72
2023/01/17 02:06:44;;;;;;;;;6.00;6.00;;;;;;;;5298374;27;8898;-73
2023/01/17 02:09:34;;;;;;;;;3.00;3.00;;;;;;;;5300795;27;8764;-73
2023/01/17 02:12:06;;;;;;;;;1.00;1.00;;;;;;;;5314635;27;8844;-72
2023/01/17 02:14:39;;;;;;;;;5.20;4.00;;;;;;;;5297591;27;8819;-72
2023/01/17 02:17:26;;;;;;;;;4.00;4.00;;;;;;;;5314565;27;8752;-72
2023/01/17 02:20:00;;;;;;;;;4.80;4.80;;;;;;;;5297683;27;8775;-73
2023/01/17 02:22:50;;;;;;;;;1.00;1.00;;;;;;;;5297562;27;8765;-73
2023/01/17 02:25:47;;;;;;;;;3.00;3.00;;;;;;;;5279696;27;9471;-73
2023/01/17 02:28:18;;;;;;;;;9.60;9.00;;;;;;;;5333073;27;8828;-73
2023/01/17 02:30:53;;;;;;;;;4.80;4.80;;;;;;;;5297374;27;8800;-74
2023/01/17 02:33:28;;;;;;;;;56.50;49.00;;;;;;;;5296790;27;8764;-75
2023/01/17 02:36:17;;;;;;;;;10.00;10.00;;;;;;;;5280612;27;8823;-73
2023/01/17 02:39:13;;;;;;;;;16.80;16.40;;;;;;;;5317258;27;8784;-74
2023/01/17 02:42:07;;;;;;;;;15.20;13.80;;;;;;;;5316926;27;8877;-75
2023/01/17 02:44:42;;;;;;;;;18.60;18.60;;;;;;;;5313821;27;8784;-76
2023/01/17 02:47:22;;;;;;;;;19.75;16.50;;;;;;;;5313889;27;8776;-76
2023/01/17 02:50:04;;;;;;;;;19.60;19.60;;;;;;;;5296887;27;8776;-76
2023/01/17 02:52:38;;;;;;;;;8.80;8.80;;;;;;;;5265457;27;8842;-73
2023/01/17 02:55:13;;;;;;;;;11.80;11.00;;;;;;;;5308834;27;8805;-74
2023/01/17 02:58:03;;;;;;;;;10.80;10.80;;;;;;;;5259513;28;8769;-74
2023/01/17 03:00:46;;;;;;;;;9.40;9.40;;;;;;;;5290017;28;9444;-75
2023/01/17 03:03:38;;;;;;;;;9.20;8.80;;;;;;;;5255745;27;8772;-76
2023/01/17 03:06:17;;;;;;;;;6.80;6.80;;;;;;;;5296365;27;8823;-73
2023/01/17 03:09:06;;;;;;;;;6.80;6.00;;;;;;;;5314159;27;9524;-74
2023/01/17 03:11:37;;;;;;;;;15.60;13.60;;;;;;;;5292107;27;9532;-74
2023/01/17 03:14:08;;;;;;;;;20.50;19.00;;;;;;;;5283065;27;8832;-74
2023/01/17 03:16:40;;;;;;;;;25.00;24.50;;;;;;;;5296385;27;8756;-75
2023/01/17 03:19:13;;;;;;;;;27.50;27.50;;;;;;;;5313437;27;8764;-74
2023/01/17 03:21:44;;;;;;;;;22.00;22.00;;;;;;;;5278786;27;8795;-74
2023/01/17 03:24:15;;;;;;;;;18.50;18.50;;;;;;;;5295830;27;8772;-73
2023/01/17 03:26:46;;;;;;;;;14.50;14.50;;;;;;;;5331463;27;8831;-73
2023/01/17 03:29:35;;;;;;;;;18.25;18.25;;;;;;;;5313149;27;8831;-73
2023/01/17 03:32:06;;;;;;;;;25.67;25.67;;;;;;;;5295899;27;8776;-73
2023/01/17 03:34:56;;;;;;;;;24.50;24.50;;;;;;;;5316662;27;10831;-72
2023/01/17 03:37:27;;;;;;;;;24.25;22.00;;;;;;;;5291711;27;8766;-72
2023/01/17 03:39:58;;;;;;;;;13.20;13.20;;;;;;;;5274769;27;8801;-72
2023/01/17 03:42:29;;;;;;;;;13.75;13.25;;;;;;;;5258029;27;8871;-73
2023/01/17 03:45:00;;;;;;;;;13.00;13.00;;;;;;;;5253323;28;8801;-74
2023/01/17 03:47:34;;;;;;;;;13.00;11.80;;;;;;;;5255295;28;8804;-74
2023/01/17 03:50:06;;;;;;;;;9.60;9.60;;;;;;;;5265884;27;8805;-71
2023/01/17 03:52:37;;;;;;;;;8.80;8.60;;;;;;;;5308228;27;8778;-71
2023/01/17 03:55:09;;;;;;;;;9.80;9.80;;;;;;;;5291230;27;8833;-72
2023/01/17 03:57:58;;;;;;;;;10.40;10.40;;;;;;;;5309244;27;8782;-72
2023/01/17 04:00:30;;;;;;;;;10.00;10.00;;;;;;;;5257881;27;8827;-71
2023/01/17 04:03:20;;;;;;;;;11.60;11.60;;;;;;;;5290951;27;8782;-70
2023/01/17 04:05:51;;;;;;;;;9.00;9.00;;;;;;;;5291115;27;8812;-71
2023/01/17 04:08:22;;;;;;;;;7.40;7.40;;;;;;;;5292221;27;9564;-71
2023/01/17 04:10:53;;;;;;;;;12.40;12.40;;;;;;;;5288224;28;8891;-71
2023/01/17 04:13:25;;;;;;;;;0.20;0.20;;;;;;;;5260779;27;8771;-72
2023/01/17 04:15:56;;;;;;;;;8.00;7.00;;;;;;;;5291184;27;8798;-71
2023/01/17 04:18:27;;;;;;;;;6.20;6.20;;;;;;;;5274397;27;9857;-71
2023/01/17 04:20:58;;;;;;;;;8.20;8.20;;;;;;;;5274402;27;9582;-71
2023/01/17 04:23:29;;;;;;;;;10.00;9.00;;;;;;;;5257144;27;8790;-71
2023/01/17 04:26:02;;;;;;;;;10.20;10.20;;;;;;;;5291565;27;8873;-71
2023/01/17 04:28:34;;;;;;;;;15.80;15.00;;;;;;;;5291240;27;9461;-71
2023/01/17 04:31:05;;;;;;;;;11.60;10.80;;;;;;;;5274555;27;8790;-71
2023/01/17 04:33:36;;;;;;;;;6.40;6.40;;;;;;;;5257926;27;8766;-71
2023/01/17 04:36:07;;;;;;;;;8.50;8.50;;;;;;;;5273743;27;8878;-71
2023/01/17 04:38:39;;;;;;;;;15.40;15.40;;;;;;;;5258342;27;9941;-71
2023/01/17 04:41:10;;;;;;;;;25.00;25.00;;;;;;;;5274806;27;8878;-70
2023/01/17 04:43:42;;;;;;;;;30.50;28.00;;;;;;;;5257011;27;8793;-71
2023/01/17 04:46:13;;;;;;;;;15.60;14.20;;;;;;;;5291071;27;8814;-71
2023/01/17 04:48:44;;;;;;;;;3.80;3.00;;;;;;;;5290436;27;8863;-72
2023/01/17 04:51:15;;;;;;;;;14.25;14.25;;;;;;;;5282789;27;8794;-72
2023/01/17 04:53:47;;;;;;;;;15.50;15.50;;;;;;;;5319727;27;8763;-71
2023/01/17 04:56:36;;;;;;;;;12.00;12.00;;;;;;;;5281304;28;8788;-72
2023/01/17 04:59:07;;;;;;;;;11.00;10.00;;;;;;;;5253235;28;9539;-72
2023/01/17 05:01:39;;;;;;;;;18.50;18.50;;;;;;;;5252929;28;8872;-70
2023/01/17 05:04:10;;;;;;;;;14.00;14.00;;;;;;;;5269976;28;8974;-71
2023/01/17 05:06:59;;;;;;;;;14.00;13.00;;;;;;;;5259415;28;8796;-71
2023/01/17 05:09:49;;;;;;;;;22.75;21.75;;;;;;;;5273890;28;8888;-71
2023/01/17 05:12:20;;;;;;;;;16.00;16.00;;;;;;;;5273389;28;8792;-71
2023/01/17 05:14:51;;;;;;;;;19.25;19.25;;;;;;;;5293497;27;8850;-71
2023/01/17 05:17:23;;;;;;;;;9.50;8.00;;;;;;;;5294650;27;8771;-71
2023/01/17 05:19:54;;;;;;;;;22.00;22.00;;;;;;;;5277377;27;8786;-70
2023/01/17 05:22:25;;;;;;;;;12.25;12.25;;;;;;;;5290020;28;8788;-70
2023/01/17 05:24:56;;;;;;;;;6.75;6.75;;;;;;;;5256130;28;8796;-70
2023/01/17 05:27:28;;;;;;;;;13.00;13.00;;;;;;;;5256294;28;8781;-71
2023/01/17 05:29:59;;;;;;;;;16.25;16.25;;;;;;;;5284509;27;8819;-71
2023/01/17 05:32:30;;;;;;;;;15.75;15.75;;;;;;;;5294033;27;8763;-70
2023/01/17 05:43:48;;;;;;;;;9.00;9.00;;;;;;;;5312070;27;8723;-72
2023/01/17 05:46:19;;;;;;;;;12.00;12.00;;;;;;;;5260862;27;9444;-72
2023/01/17 05:48:50;;;;;;;;;14.75;14.75;;;;;;;;5289447;27;8794;-71
2023/01/17 05:51:22;;;;;;;;;16.50;16.00;;;;;;;;5293957;27;8768;-72
2023/01/17 05:53:53;;;;;;;;;10.00;10.00;;;;;;;;5292889;27;8767;-70
2023/01/17 06:00:48;;;;;;;;;11.60;11.60;;;;;;;;5311677;27;8804;-71
2023/01/17 06:03:19;;;;;;;;;7.00;6.60;;;;;;;;5293229;27;8802;-68
2023/01/17 06:10:14;;;;;;;;;9.60;8.60;;;;;;;;5311177;27;8837;-71
2023/01/17 06:12:45;;;;;;;;;6.40;6.40;;;;;;;;5293216;27;8764;-71
2023/01/17 06:19:40;;;;;;;;;4.40;4.40;;;;;;;;5311396;27;8695;-72
2023/01/17 06:22:12;;;;;;;;;3.40;3.40;;;;;;;;5310624;27;8779;-70
2023/01/17 06:24:42;;;;;;;;;3.40;3.40;;;;;;;;5310171;27;8771;-70
2023/01/17 06:27:14;;;;;;;;;1.00;1.00;;;;;;;;5293295;27;8799;-70
2023/01/17 06:29:45;;;;;;;;;4.80;4.80;;;;;;;;5310183;27;8790;-70
2023/01/17 06:32:16;;;;;;;;;3.00;3.00;;;;;;;;5310115;27;8791;-71
2023/01/17 06:34:47;;;;;;;;;15.00;15.00;;;;;;;;5292679;27;8799;-70
2023/01/17 06:37:18;;;;;;;;;12.00;8.60;;;;;;;;5292599;27;8814;-71
2023/01/17 06:39:49;;;;;;;;;6.80;6.80;;;;;;;;5275823;27;8799;-71
2023/01/17 06:42:21;;;;;;;;;9.60;9.60;;;;;;;;5275246;27;8894;-72
2023/01/17 06:44:52;;;;;;;;;7.00;7.00;;;;;;;;5310146;27;8809;-72
2023/01/17 06:47:24;;;;;;;;;4.40;4.40;;;;;;;;5314777;27;8805;-71
2023/01/17 06:49:55;;;;;;;;;11.20;9.80;;;;;;;;5280924;27;8884;-72
2023/01/17 06:52:26;;;;;;;;;15.80;15.80;;;;;;;;5280947;27;8773;-71
2023/01/17 06:54:57;;;;;;;;;14.00;14.00;;;;;;;;5296714;27;9512;-72
2023/01/17 06:57:29;;;;;;;;;7.20;7.20;;;;;;;;5314342;27;8773;-72
2023/01/17 07:00:00;;;;;;;;;12.60;12.60;;;;;;;;5279685;27;8797;-71
2023/01/17 07:02:51;;;;;;;;;7.00;7.00;;;;;;;;5298980;27;8803;-71
2023/01/17 07:05:22;;;;;;;;;1.80;1.80;;;;;;;;5280181;27;9460;-71
2023/01/17 07:07:53;;;;;;;;;8.20;7.60;;;;;;;;5279874;27;8776;-71
2023/01/17 07:10:25;;;;;;;;;27.00;24.25;;;;;;;;5296589;27;8789;-71
2023/01/17 07:12:59;;;;;;;;;10.00;9.60;;;;;;;;5279174;27;8951;-71
2023/01/17 07:15:30;;;;;;;;;5.20;5.20;;;;;;;;5313368;27;8813;-71
2023/01/17 07:18:02;;;;;;;;;6.20;6.20;;;;;;;;5279439;27;8786;-72
2023/01/17 07:20:34;;;;;;;;;9.00;9.00;;;;;;;;5279691;27;8892;-71
2023/01/17 07:23:05;;;;;;;;;9.00;7.00;;;;;;;;5279337;27;8769;-72
2023/01/17 07:25:36;;;;;;;;;4.00;4.00;;;;;;;;5296245;27;8765;-70
2023/01/17 07:28:08;;;;;;;;;9.60;9.60;;;;;;;;5295735;27;8790;-72
2023/01/17 07:30:39;;;;;;;;;9.60;9.60;;;;;;;;5313111;27;8734;-71
2023/01/17 07:33:11;;;;;;;;;6.20;6.20;;;;;;;;5278991;27;8761;-72
2023/01/17 07:35:42;;;;;;;;;1.80;1.80;;;;;;;;5313238;27;8789;-71
2023/01/17 07:38:33;;;;;;;;;6.80;6.80;;;;;;;;5313733;27;8754;-72
2023/01/17 07:41:04;;;;;;;;;8.20;8.20;;;;;;;;5279189;27;8766;-71
2023/01/17 07:43:54;;;;;;;;;3.00;3.00;;;;;;;;5298737;27;8762;-72
2023/01/17 07:46:25;;;;;;;;;6.40;6.40;;;;;;;;5279015;27;8762;-72
2023/01/17 07:48:56;;;;;;;;;7.00;7.00;;;;;;;;5296004;27;8904;-71
2023/01/17 07:51:28;;;;;;;;;4.40;4.40;;;;;;;;5313459;27;8757;-71
2023/01/17 07:53:59;;;;;;;;;6.40;6.40;;;;;;;;5313445;27;9444;-71
2023/01/17 07:56:32;;;;;;;;;3.00;3.00;;;;;;;;5295611;27;8868;-71
2023/01/17 07:59:22;;;;;;;;;3.60;3.60;;;;;;;;5312534;27;8777;-70
2023/01/17 08:01:53;;;;;;;;;6.00;6.00;;;;;;;;5279048;27;8773;-71
2023/01/17 08:04:25;;;;;;;;;4.00;4.00;;;;;;;;5295583;27;9487;-71
2023/01/17 08:07:14;;;;;;;;;5.40;5.40;;;;;;;;5298387;27;11332;-71
2023/01/17 08:09:48;;;;;;;;;8.20;8.20;;;;;;;;5295861;27;8749;-70
2023/01/17 08:12:19;;;;;;;;;4.00;4.00;;;;;;;;5295843;27;8884;-71
2023/01/17 08:14:50;;;;;;;;;6.50;6.50;;;;;;;;5313157;27;8939;-72
2023/01/17 08:17:21;;;;;;;;;5.60;5.60;;;;;;;;5278556;27;8817;-71
2023/01/17 08:19:52;;;;;;;;;6.25;6.25;;;;;;;;5296195;27;8758;-70
2023/01/17 08:22:23;;;;;;;;;8.20;8.20;;;;;;;;5295225;27;10014;-70
2023/01/17 08:24:54;;;;;;;;;7.80;7.80;;;;;;;;5295337;27;8766;-71
2023/01/17 08:27:27;;;;;;;;;9.20;9.20;;;;;;;;5312517;27;8809;-71
2023/01/17 08:30:16;;;;;;;;;1.00;1.00;;;;;;;;5312393;27;8913;-71
2023/01/17 08:32:47;;;;;;;;;7.20;7.20;;;;;;;;5312834;27;8773;-71
2023/01/17 08:35:19;;;;;;;;;6.75;6.75;;;;;;;;5295723;27;8865;-70
2023/01/17 08:37:52;;;;;;;;;7.00;7.00;;;;;;;;5312657;27;8797;-70
2023/01/17 08:40:23;;;;;;;;;6.00;6.00;;;;;;;;5298102;27;8779;-70
2023/01/17 08:43:12;;;;;;;;;23.20;22.60;;;;;;;;5319478;27;8792;-70
2023/01/17 08:45:47;;;;;;;;;6.50;6.50;;;;;;;;5282481;27;8778;-70
2023/01/17 08:48:18;;;;;;;;;5.80;5.80;;;;;;;;5282193;27;10074;-71
2023/01/17 08:50:50;;;;;;;;;10.80;10.60;;;;;;;;5299271;27;8777;-72
2023/01/17 08:53:22;;;;;;;;;7.40;7.40;;;;;;;;5299412;27;8769;-70
2023/01/17 08:55:56;;;;;;;;;9.60;9.60;;;;;;;;5299009;27;8866;-70
2023/01/17 08:58:28;;;;;;;;;9.60;9.60;;;;;;;;5334932;27;8773;-71
2023/01/17 09:01:01;;;;;;;;;8.20;8.20;;;;;;;;5281994;27;8811;-71
2023/01/17 09:03:32;;;;;;;;;6.60;6.60;;;;;;;;5298944;27;8762;-71
2023/01/17 09:06:22;;;;;;;;;9.00;9.00;;;;;;;;5315656;27;8762;-70
2023/01/17 09:08:53;;;;;;;;;12.75;12.00;;;;;;;;5298791;27;8757;-71
2023/01/17 09:11:43;;;;;;;;;11.60;10.80;;;;;;;;5318771;27;11343;-70
2023/01/17 09:14:14;;;;;;;;;22.50;22.00;;;;;;;;5299173;27;8821;-71
2023/01/17 09:16:45;;;;;;;;;12.60;12.60;;;;;;;;5316442;27;8846;-70
2023/01/17 09:19:16;;;;;;;;;6.25;6.25;;;;;;;;5298842;27;8762;-71
2023/01/17 09:21:47;;;;;;;;;6.60;6.60;;;;;;;;5281975;27;9465;-71
2023/01/17 09:24:18;;;;;;;;;6.25;6.25;;;;;;;;5298964;27;8909;-69
2023/01/17 09:26:48;;;;;;;;;6.75;6.00;;;;;;;;5298399;27;11479;-70
2023/01/17 09:29:19;;;;;;;;;3.50;3.50;;;;;;;;5298605;27;11425;-70
2023/01/17 09:31:50;;;;;;;;;6.00;6.00;;;;;;;;5298531;27;8758;-70
2023/01/17 09:34:23;;;;;;;;;3.50;3.00;;;;;;;;5298595;27;9476;-70
2023/01/17 09:36:55;;;;;;;;;2.60;2.60;;;;;;;;5316848;27;9537;-71
2023/01/17 09:39:26;;;;;;;;;5.60;4.80;;;;;;;;5316983;27;8800;-70
2023/01/17 09:42:10;;;;;;;;;4.00;4.00;;;;;;;;5299296;27;8742;-69
2023/01/17 09:44:50;;;;;;;;;4.00;4.00;;;;;;;;5281732;27;11337;-70
2023/01/17 09:47:42;;;;;;;;;12.00;11.80;;;;;;;;5281706;27;8789;-71
2023/01/17 09:50:49;;;;;;;;;10.80;10.80;;;;;;;;5300997;27;8769;-69
2023/01/17 09:53:20;;;;;;;;;10.00;10.00;;;;;;;;5298630;27;9476;-69
2023/01/17 09:55:59;;;;;;;;;6.60;6.60;;;;;;;;5281778;27;8984;-69
2023/01/17 09:58:37;;;;;;;;;7.40;7.40;;;;;;;;5334374;27;8777;-71
2023/01/17 10:01:11;;;;;;;;;2.60;2.60;;;;;;;;5315303;27;8774;-71
2023/01/17 10:04:02;;;;;;;;;1.00;1.00;;;;;;;;5280883;27;8888;-68
2023/01/17 10:07:10;;;;;;;;;6.00;6.00;;;;;;;;5334037;27;8830;-71
2023/01/17 10:10:01;;;;;;;;;5.60;5.60;;;;;;;;5281505;27;8754;-70
2023/01/17 10:12:43;;;;;;;;;4.40;4.40;;;;;;;;5284767;27;8765;-70
2023/01/17 10:15:33;;;;;;;;;8.60;8.60;;;;;;;;5281512;27;8781;-70
2023/01/17 10:18:17;;;;;;;;;0.60;0.60;;;;;;;;5282013;27;9467;-70
2023/01/17 10:20:48;;;;;;;;;1.00;1.00;;;;;;;;5298176;27;8730;-70
2023/01/17 10:23:40;;;;;;;;;5.40;5.20;;;;;;;;5317200;27;8930;-71
2023/01/17 10:26:15;;;;;;;;;6.00;6.00;;;;;;;;5280589;27;9457;-71
2023/01/17 10:28:47;;;;;;;;;9.00;9.00;;;;;;;;5280774;27;8754;-71
2023/01/17 10:31:18;;;;;;;;;9.20;9.20;;;;;;;;5298574;27;8760;-71
2023/01/17 10:38:13;;;;;;;;;6.20;6.20;;;;;;;;5312059;27;8719;-71
2023/01/17 10:40:50;;;;;;;;;7.60;7.60;;;;;;;;5259983;27;8856;-70
2023/01/17 10:43:23;;;;;;;;;6.80;6.80;;;;;;;;5277309;27;9534;-70
2023/01/17 10:45:55;;;;;;;;;17.60;15.60;;;;;;;;5276340;27;8760;-70
2023/01/17 10:48:41;;;;;;;;;8.60;8.60;;;;;;;;5306737;27;8803;-72
2023/01/17 10:51:31;;;;;;;;;8.40;8.40;;;;;;;;5297820;27;8787;-71
2023/01/17 10:54:26;;;;;;;;;9.60;9.60;;;;;;;;5300687;27;8812;-72
2023/01/17 10:56:58;;;;;;;;;10.40;10.40;;;;;;;;5335717;27;8831;-69
2023/01/17 10:59:33;;;;;;;;;12.20;9.00;;;;;;;;5339730;27;8799;-69
2023/01/17 11:11:01;;;;;;;;;10.60;10.60;;;;;;;;5332139;27;8697;-68
2023/01/17 11:13:35;;;;;;;;;1.40;1.40;;;;;;;;5280196;27;8890;-68
2023/01/17 11:16:07;;;;;;;;;9.20;9.20;;;;;;;;5295995;27;8788;-69
2023/01/17 11:18:38;;;;;;;;;6.80;6.80;;;;;;;;5295902;27;8776;-69
2023/01/17 11:21:17;;;;;;;;;14.20;14.20;;;;;;;;5313343;27;9466;-68
2023/01/17 11:23:55;;;;;;;;;20.00;20.00;;;;;;;;5313559;27;8768;-71
2023/01/17 11:26:29;;;;;;;;;17.60;16.00;;;;;;;;5279580;27;8810;-70
2023/01/17 11:29:14;;;;;;;;;17.60;17.20;;;;;;;;5279043;27;8832;-68
2023/01/17 11:31:45;;;;;;;;;13.80;12.80;;;;;;;;5296417;27;8764;-69
2023/01/17 11:34:17;;;;;;;;;18.60;18.60;;;;;;;;5279516;27;8798;-69
2023/01/17 11:37:07;;;;;;;;;14.40;14.40;;;;;;;;5296228;27;8775;-70
2023/01/17 11:39:41;;;;;;;;;4.00;4.00;;;;;;;;5297197;27;8792;-69
2023/01/17 11:42:34;;;;;;;;;7.40;7.40;;;;;;;;5298925;27;8776;-70
2023/01/17 11:45:35;;;;;;;;;8.40;6.00;;;;;;;;5312862;27;8840;-69
2023/01/17 11:48:12;;;;;;;;;0.00;0.00;;;;;;;;5309663;27;8781;-70
2023/01/17 11:51:01;;;;;;;;;3.60;3.60;;;;;;;;5298615;27;8789;-70
2023/01/17 11:53:36;;;;;;;;;9.60;8.20;;;;;;;;5278839;27;8769;-72
2023/01/17 11:56:10;;;;;;;;;9.60;9.60;;;;;;;;5312956;27;8789;-69
2023/01/17 11:58:41;;;;;;;;;6.00;6.00;;;;;;;;5313250;27;8816;-71
2023/01/17 12:01:20;;;;;;;;;6.80;6.80;;;;;;;;5278454;27;8781;-70
2023/01/17 12:04:01;;;;;;;;;13.40;11.00;;;;;;;;5295424;27;8801;-72
2023/01/17 12:07:08;;;;;;;;;9.80;9.80;;;;;;;;5331241;27;8766;-71
2023/01/17 12:09:42;;;;;;;;;9.40;9.40;;;;;;;;5295651;27;8846;-70
2023/01/17 12:15:12;;;;;;;;;6.00;6.00;;;;;;;;5297499;27;8793;-69
2023/01/17 12:17:42;;;;;;;;;4.00;4.00;;;;;;;;5299783;27;8822;-69
2023/01/17 12:20:48;;;;;;;;;11.20;11.20;;;;;;;;5302325;27;9919;-69
2023/01/17 12:23:33;;;;;;;;;12.40;12.40;;;;;;;;5299803;27;8789;-70
2023/01/17 12:26:27;;;;;;;;;3.80;3.80;;;;;;;;5299699;27;8872;-69
2023/01/17 12:28:58;;;;;;;;;12.80;11.60;;;;;;;;5281971;27;8761;-68
2023/01/17 12:31:43;;;;;;;;;22.40;22.40;;;;;;;;5299533;27;8773;-69
2023/01/17 12:34:26;;;;;;;;;14.40;14.40;;;;;;;;5283123;27;8761;-70
2023/01/17 12:37:00;;;;;;;;;7.00;7.00;;;;;;;;5300064;27;8785;-70
2023/01/17 12:39:55;;;;;;;;;3.60;3.60;;;;;;;;5302018;27;8770;-70
2023/01/17 12:42:49;;;;;;;;;12.60;12.60;;;;;;;;5301851;27;8761;-71
2023/01/17 12:45:42;;;;;;;;;12.60;12.00;;;;;;;;5302072;27;8796;-70
2023/01/17 12:48:36;;;;;;;;;15.60;15.60;;;;;;;;5318878;27;8782;-69
2023/01/17 12:51:12;;;;;;;;;15.60;15.60;;;;;;;;5299004;27;8777;-69
2023/01/17 12:53:59;;;;;;;;;11.20;11.20;;;;;;;;5298891;27;8776;-69
2023/01/17 12:56:40;;;;;;;;;12.40;12.40;;;;;;;;5334896;27;8766;-70
2023/01/17 12:59:18;;;;;;;;;20.00;19.00;;;;;;;;5316849;27;8797;-72
2023/01/17 13:01:56;;;;;;;;;19.40;19.40;;;;;;;;5282207;27;8776;-70
2023/01/17 13:04:49;;;;;;;;;15.40;14.60;;;;;;;;5334312;27;8765;-74
2023/01/17 13:10:50;;;;;;;;;13.60;12.60;;;;;;;;5293999;27;8922;-71
2023/01/17 13:18:14;;;;;;;;;15.20;14.60;;;;;;;;5291628;28;8718;-71
2023/01/17 13:20:45;;;;;;;;;12.20;12.20;;;;;;;;5273990;28;9462;-71
2023/01/17 13:27:48;;;;;;;;;22.80;22.60;;;;;;;;5332542;27;10308;-73
2023/01/17 13:39:03;;;;;;;;;20.60;20.60;;;;;;;;5204929;28;8793;-71
2023/01/17 13:41:37;;;;;;;;;31.20;26.80;;;;;;;;5245450;28;8770;-72
2023/01/17 13:44:21;;;;;;;;;12.00;12.00;;;;;;;;5309899;27;8781;-72
2023/01/17 13:46:54;;;;;;;;;9.00;9.00;;;;;;;;5281559;27;9433;-71
2023/01/17 13:53:48;;;;;;;;;15.00;15.00;;;;;;;;5333435;27;8705;-72
2023/01/17 14:08:47;;;;;;;;;17.20;17.20;;;;;;;;5274964;28;8770;-72
2023/01/17 14:19:35;;;;;;;;;18.20;17.20;;;;;;;;5332781;27;9392;-73
2023/01/17 14:22:26;;;;;;;;;15.60;15.60;;;;;;;;5297221;27;8742;-74
2023/01/17 14:25:19;;;;;;;;;13.40;13.40;;;;;;;;5296986;27;8762;-73
2023/01/17 14:27:55;;;;;;;;;15.40;15.00;;;;;;;;5314739;27;8802;-74
2023/01/17 14:30:28;;;;;;;;;16.40;15.40;;;;;;;;5280601;27;8773;-75
2023/01/17 14:33:00;;;;;;;;;12.20;12.20;;;;;;;;5297628;27;8972;-74
2023/01/17 14:35:54;;;;;;;;;12.40;12.40;;;;;;;;5280431;27;9504;-72
2023/01/17 14:38:33;;;;;;;;;7.80;7.80;;;;;;;;5290779;27;8757;-73
2023/01/17 14:41:25;;;;;;;;;13.40;12.00;;;;;;;;5315118;27;9499;-72
2023/01/17 14:44:15;;;;;;;;;12.60;11.20;;;;;;;;5316833;27;8761;-74
2023/01/17 14:47:05;;;;;;;;;7.00;7.00;;;;;;;;5299184;27;8818;-74
2023/01/17 14:49:36;;;;;;;;;10.40;10.40;;;;;;;;5280676;27;8885;-73
2023/01/17 14:52:15;;;;;;;;;12.00;10.75;;;;;;;;5279622;27;8924;-74
2023/01/17 14:54:47;;;;;;;;;9.60;9.00;;;;;;;;5280496;27;8806;-73
2023/01/17 14:57:23;;;;;;;;;12.00;12.00;;;;;;;;5297220;27;8781;-74
2023/01/17 15:00:09;;;;;;;;;13.40;12.40;;;;;;;;5296655;27;8835;-72
2023/01/17 15:02:42;;;;;;;;;0.00;0.00;;;;;;;;5297653;27;8750;-74
2023/01/17 15:05:17;;;;;;;;;12.00;12.00;;;;;;;;5297234;27;8785;-73
2023/01/17 15:08:15;;;;;;;;;9.00;9.00;;;;;;;;5313943;27;8781;-72
2023/01/17 15:10:50;;;;;;;;;7.80;7.80;;;;;;;;5313514;27;8793;-75
2023/01/17 15:13:24;;;;;;;;;8.20;8.20;;;;;;;;5296449;27;8796;-72
2023/01/17 15:16:16;;;;;;;;;13.00;13.00;;;;;;;;5295798;27;8809;-73
2023/01/17 15:18:47;;;;;;;;;15.20;15.20;;;;;;;;5313792;27;8762;-72
2023/01/17 15:21:21;;;;;;;;;14.40;13.40;;;;;;;;5295651;27;8781;-72
2023/01/17 15:23:54;;;;;;;;;11.40;11.00;;;;;;;;5295884;27;8789;-71
2023/01/17 15:26:26;;;;;;;;;14.00;14.00;;;;;;;;5296085;27;9531;-73
2023/01/17 15:29:20;;;;;;;;;15.20;14.40;;;;;;;;5313135;27;8784;-72
2023/01/17 15:32:03;;;;;;;;;16.00;16.00;;;;;;;;5296460;27;8841;-72
2023/01/17 15:34:42;;;;;;;;;22.40;22.40;;;;;;;;5331679;27;9455;-74
2023/01/17 15:37:29;;;;;;;;;16.40;14.40;;;;;;;;5296203;27;8749;-71
2023/01/17 15:40:16;;;;;;;;;16.60;15.20;;;;;;;;5279059;27;8788;-72
2023/01/17 15:47:01;;;;;;;;;7.40;7.40;;;;;;;;5289237;27;8782;-71
2023/01/17 15:49:34;;;;;;;;;12.60;12.60;;;;;;;;5257850;27;8873;-71
2023/01/17 15:52:24;;;;;;;;;15.80;15.40;;;;;;;;5309265;27;8843;-71
2023/01/17 16:03:30;;;;;;;;;15.00;15.00;;;;;;;;5330789;27;8748;-73
2023/01/17 16:10:30;;;;;;;;;11.00;11.00;;;;;;;;5329548;27;8915;-73
2023/01/17 16:13:02;;;;;;;;;14.20;13.80;;;;;;;;5278172;27;8784;-74
2023/01/17 16:19:58;;;;;;;;;27.20;24.80;;;;;;;;5330585;27;8807;-70
2023/01/17 16:22:29;;;;;;;;;20.60;18.00;;;;;;;;5295596;27;8779;-70
2023/01/17 16:25:20;;;;;;;;;15.00;15.00;;;;;;;;5315731;27;8861;-69
2023/01/17 16:36:53;;;;;;;;;9.00;9.00;;;;;;;;5330514;27;8783;-69
2023/01/17 16:39:24;;;;;;;;;10.00;10.00;;;;;;;;5295351;27;8836;-70
2023/01/17 16:41:59;;;;;;;;;4.40;4.40;;;;;;;;5312256;27;8792;-70
2023/01/17 16:44:32;;;;;;;;;8.80;8.80;;;;;;;;5312540;27;8787;-69
2023/01/17 16:47:03;;;;;;;;;5.60;5.60;;;;;;;;5295195;27;8841;-68
2023/01/17 16:49:34;;;;;;;;;10.00;10.00;;;;;;;;5312357;27;8757;-69
2023/01/17 16:52:24;;;;;;;;;9.00;9.00;;;;;;;;5298408;27;9479;-70
2023/01/17 16:54:55;;;;;;;;;10.20;9.80;;;;;;;;5311826;27;8787;-70
2023/01/17 16:57:26;;;;;;;;;15.75;15.50;;;;;;;;5330203;27;8787;-70
2023/01/17 16:59:57;;;;;;;;;6.00;6.00;;;;;;;;5311952;27;8797;-70
2023/01/17 17:02:28;;;;;;;;;6.50;6.50;;;;;;;;5298805;27;12113;-70
2023/01/17 17:04:59;;;;;;;;;7.00;7.00;;;;;;;;5298713;27;10845;-69
2023/01/17 17:07:30;;;;;;;;;7.80;7.80;;;;;;;;5316426;27;8771;-68
2023/01/17 17:10:01;;;;;;;;;9.75;9.00;;;;;;;;5289454;27;8768;-70
2023/01/17 17:12:32;;;;;;;;;10.80;10.40;;;;;;;;5343525;27;10596;-70
2023/01/17 17:15:04;;;;;;;;;13.00;13.00;;;;;;;;5342864;27;8914;-69
2023/01/17 17:17:36;;;;;;;;;12.00;12.00;;;;;;;;5336083;27;8772;-70
2023/01/17 17:20:11;;;;;;;;;23.80;21.60;;;;;;;;5299781;27;9438;-69
2023/01/17 17:22:47;;;;;;;;;16.40;12.80;;;;;;;;5315987;27;8859;-69
2023/01/17 17:25:19;;;;;;;;;12.60;12.60;;;;;;;;5298849;27;8933;-69
2023/01/17 17:27:50;;;;;;;;;17.60;17.60;;;;;;;;5281852;27;8784;-69
2023/01/17 17:30:21;;;;;;;;;13.00;13.00;;;;;;;;5298846;27;8833;-69
2023/01/17 17:32:52;;;;;;;;;10.00;10.00;;;;;;;;5298125;27;10102;-69
2023/01/17 17:35:23;;;;;;;;;15.00;15.00;;;;;;;;5334437;27;11517;-69
2023/01/17 17:37:55;;;;;;;;;9.00;7.50;;;;;;;;5281960;27;8882;-69
2023/01/17 17:40:25;;;;;;;;;9.00;9.00;;;;;;;;5317208;27;8780;-69
2023/01/17 17:42:56;;;;;;;;;7.00;7.00;;;;;;;;5282301;27;8784;-68
2023/01/17 17:45:27;;;;;;;;;12.50;12.50;;;;;;;;5298429;27;9863;-69
2023/01/17 17:47:58;;;;;;;;;7.00;7.00;;;;;;;;5280970;27;8860;-68
2023/01/17 17:50:29;;;;;;;;;7.40;7.40;;;;;;;;5333770;27;8788;-68
2023/01/17 17:53:20;;;;;;;;;10.60;10.60;;;;;;;;5318333;27;8768;-69
2023/01/17 17:55:52;;;;;;;;;13.80;13.40;;;;;;;;5280888;27;9494;-69
2023/01/17 17:58:24;;;;;;;;;14.80;14.80;;;;;;;;5298232;27;8748;-70
2023/01/17 18:01:00;;;;;;;;;7.00;7.00;;;;;;;;5297732;27;9446;-70
2023/01/17 18:03:31;;;;;;;;;11.20;9.80;;;;;;;;5297772;27;9487;-70
2023/01/17 18:06:04;;;;;;;;;13.60;12.60;;;;;;;;5280409;27;8771;-69
2023/01/17 18:08:36;;;;;;;;;3.80;3.20;;;;;;;;5297533;27;8771;-70
2023/01/17 18:11:10;;;;;;;;;6.40;6.40;;;;;;;;5314710;27;8763;-69
2023/01/17 18:13:41;;;;;;;;;7.80;7.80;;;;;;;;5313597;27;8795;-69
2023/01/17 18:16:13;;;;;;;;;13.80;13.00;;;;;;;;5297343;27;8838;-69
2023/01/17 18:19:03;;;;;;;;;12.00;12.00;;;;;;;;5332987;27;8800;-70
2023/01/17 18:21:35;;;;;;;;;10.20;8.80;;;;;;;;5298312;27;8772;-70
2023/01/17 18:24:26;;;;;;;;;11.60;11.60;;;;;;;;5301146;27;8798;-70
2023/01/17 18:26:57;;;;;;;;;79.00;59.80;;;;;;;;5332842;27;8820;-70
2023/01/17 18:29:28;;;;;;;;;20.80;19.60;;;;;;;;5314218;27;8779;-69
2023/01/17 18:32:17;;;;;;;;;16.80;15.20;;;;;;;;5299735;27;8786;-68
2023/01/17 18:34:50;;;;;;;;;14.00;14.00;;;;;;;;5313772;27;8816;-69
2023/01/17 18:37:21;;;;;;;;;14.60;14.60;;;;;;;;5296991;27;9470;-69
2023/01/17 18:39:53;;;;;;;;;10.00;10.00;;;;;;;;5314202;27;8788;-69
2023/01/17 18:42:25;;;;;;;;;12.75;12.75;;;;;;;;5297012;27;8836;-69
2023/01/17 18:44:56;;;;;;;;;15.60;15.60;;;;;;;;5297033;27;10247;-69
2023/01/17 18:47:27;;;;;;;;;19.40;19.00;;;;;;;;5297077;27;8814;-70
2023/01/17 18:50:17;;;;;;;;;15.60;15.60;;;;;;;;5299583;27;8760;-70
2023/01/17 18:52:48;;;;;;;;;18.40;17.60;;;;;;;;5279859;27;8776;-69